createdAt,value
2018-07-22T00:01:48.018Z,25.18
2018-07-22T00:04:18.802Z,24.87
2018-07-22T00:06:49.736Z,24.95
2018-07-22T00:09:20.454Z,24.70
2018-07-22T00:11:51.203Z,25.00
2018-07-22T00:14:21.989Z,25.06
2018-07-22T00:16:52.661Z,24.83
2018-07-22T00:19:23.165Z,24.89
2018-07-22T00:21:53.874Z,24.78
2018-07-22T00:24:24.509Z,24.53
2018-07-22T00:26:55.348Z,24.23
2018-07-22T00:29:26.052Z,24.63
2018-07-22T00:31:56.928Z,24.73
2018-07-22T00:34:27.473Z,24.65
2018-07-22T00:36:58.176Z,24.75
2018-07-22T00:39:28.869Z,24.70
2018-07-22T00:41:59.508Z,24.74
2018-07-22T00:44:29.957Z,24.73
2018-07-22T00:47:00.663Z,24.89
2018-07-22T00:49:31.337Z,24.92
2018-07-22T00:52:02.229Z,24.54
2018-07-22T00:54:32.852Z,24.76
2018-07-22T00:57:03.783Z,24.91
2018-07-22T00:59:35.355Z,24.77
2018-07-22T01:02:06.121Z,24.97
2018-07-22T01:04:36.811Z,25.14
2018-07-22T01:07:07.697Z,25.08
2018-07-22T01:09:38.473Z,25.26
2018-07-22T01:12:09.245Z,24.93
2018-07-22T01:14:39.944Z,24.93
2018-07-22T01:17:10.873Z,24.51
2018-07-22T01:19:41.460Z,24.81
2018-07-22T01:22:12.333Z,24.73
2018-07-22T01:24:42.999Z,24.81
2018-07-22T01:27:13.661Z,24.84
2018-07-22T01:29:44.351Z,24.77
2018-07-22T01:32:15.167Z,24.78
2018-07-22T01:34:46.185Z,24.59
2018-07-22T01:37:17.652Z,24.40
2018-07-22T01:39:48.316Z,24.43
2018-07-22T01:42:18.892Z,24.48
2018-07-22T01:44:49.631Z,24.51
2018-07-22T01:47:20.732Z,24.67
2018-07-22T01:49:51.300Z,24.59
2018-07-22T01:52:22.018Z,24.42
2018-07-22T01:54:52.541Z,24.54
2018-07-22T01:57:23.274Z,24.56
2018-07-22T01:59:53.981Z,24.34
2018-07-22T02:02:24.925Z,24.12
2018-07-22T02:04:55.647Z,23.71
2018-07-22T02:07:26.417Z,23.82
2018-07-22T02:09:56.517Z,24.07
2018-07-22T02:12:27.208Z,24.16
2018-07-22T02:14:58.609Z,24.10
2018-07-22T02:17:29.390Z,23.90
2018-07-22T02:19:59.997Z,24.02
2018-07-22T02:22:30.643Z,23.96
2018-07-22T02:25:01.403Z,23.96
2018-07-22T02:27:32.196Z,23.81
2018-07-22T02:30:03.034Z,23.27
2018-07-22T02:32:33.791Z,23.17
2018-07-22T02:35:04.534Z,23.34
2018-07-22T02:37:36.137Z,23.56
2018-07-22T02:40:06.801Z,23.61
2018-07-22T02:42:37.462Z,23.56
2018-07-22T02:45:08.009Z,23.39
2018-07-22T02:47:38.769Z,23.36
2018-07-22T02:50:09.336Z,23.56
2018-07-22T02:52:40.172Z,23.66
2018-07-22T02:55:10.764Z,23.72
2018-07-22T02:57:41.841Z,23.66
2018-07-22T03:00:12.539Z,23.72
2018-07-22T03:02:43.378Z,23.75
2018-07-22T03:05:14.073Z,23.68
2018-07-22T03:07:45.204Z,23.78
2018-07-22T03:10:15.995Z,23.81
2018-07-22T03:12:46.883Z,23.68
2018-07-22T03:15:17.713Z,23.81
2018-07-22T03:17:48.896Z,23.93
2018-07-22T03:20:19.646Z,23.30
2018-07-22T03:22:50.388Z,23.20
2018-07-22T03:25:20.621Z,23.31
2018-07-22T03:27:51.324Z,23.36
2018-07-22T03:30:21.984Z,23.54
2018-07-22T03:32:52.877Z,23.78
2018-07-22T03:35:23.528Z,23.92
2018-07-22T03:37:54.262Z,24.02
2018-07-22T03:40:24.896Z,24.08
2018-07-22T03:42:55.689Z,24.21
2018-07-22T03:45:26.337Z,24.37
2018-07-22T03:47:57.109Z,24.35
2018-07-22T03:50:28.796Z,24.38
2018-07-22T03:52:59.760Z,24.47
2018-07-22T03:55:31.908Z,24.27
2018-07-22T03:58:02.537Z,24.04
2018-07-22T04:00:33.242Z,23.98
2018-07-22T04:03:04.162Z,24.32
2018-07-22T04:05:34.840Z,24.18
2018-07-22T04:08:05.783Z,24.45
2018-07-22T04:10:36.406Z,24.27
2018-07-22T04:13:07.293Z,24.23
2018-07-22T04:15:38.049Z,24.48
2018-07-22T04:18:08.811Z,24.41
2018-07-22T04:20:39.484Z,24.83
2018-07-22T04:23:11.518Z,24.54
2018-07-22T04:25:42.005Z,24.68
2018-07-22T04:28:12.244Z,24.58
2018-07-22T04:30:42.836Z,24.56
2018-07-22T04:33:13.717Z,24.70
2018-07-22T04:35:44.496Z,24.68
2018-07-22T04:38:15.216Z,24.57
2018-07-22T04:40:45.710Z,24.69
2018-07-22T04:43:16.348Z,24.93
2018-07-22T04:45:47.030Z,25.05
2018-07-22T04:48:17.905Z,25.31
2018-07-22T04:50:48.517Z,25.41
2018-07-22T04:53:19.500Z,25.53
2018-07-22T04:55:50.120Z,25.88
2018-07-22T04:58:20.846Z,25.96
2018-07-22T05:00:51.496Z,26.16
2018-07-22T05:03:22.234Z,26.11
2018-07-22T05:05:53.014Z,26.59
2018-07-22T05:08:23.728Z,26.39
2018-07-22T05:10:54.209Z,26.72
2018-07-22T05:13:24.829Z,26.97
2018-07-22T05:15:55.475Z,27.16
2018-07-22T05:18:26.341Z,27.76
2018-07-22T05:20:56.996Z,28.14
2018-07-22T05:23:27.640Z,28.13
2018-07-22T05:25:58.317Z,28.33
2018-07-22T05:28:29.318Z,28.63
2018-07-22T05:30:59.873Z,28.97
2018-07-22T05:33:30.513Z,28.82
2018-07-22T05:36:01.159Z,28.72
2018-07-22T05:38:31.567Z,29.48
2018-07-22T05:41:02.213Z,29.67
2018-07-22T05:43:33.024Z,29.85
2018-07-22T05:46:04.509Z,29.09
2018-07-22T05:48:35.541Z,29.10
2018-07-22T05:51:06.924Z,29.37
2018-07-22T05:53:37.920Z,29.80
2018-07-22T05:56:08.493Z,29.94
2018-07-22T05:58:39.241Z,30.31
2018-07-22T06:01:09.860Z,29.98
2018-07-22T06:03:40.620Z,30.87
2018-07-22T06:06:11.352Z,31.05
2018-07-22T06:08:42.265Z,31.68
2018-07-22T06:11:12.849Z,31.41
2018-07-22T06:13:43.538Z,31.85
2018-07-22T06:16:14.269Z,32.16
2018-07-22T06:18:45.308Z,32.64
2018-07-22T06:21:15.984Z,32.54
2018-07-22T06:23:46.607Z,32.56
2018-07-22T06:26:17.566Z,32.41
2018-07-22T06:28:48.545Z,32.97
2018-07-22T06:31:19.161Z,32.80
2018-07-22T06:33:49.913Z,32.98
2018-07-22T06:36:20.044Z,32.29
2018-07-22T06:38:50.926Z,32.48
2018-07-22T06:41:21.665Z,32.48
2018-07-22T06:43:52.696Z,32.89
2018-07-22T06:46:23.267Z,33.34
2018-07-22T06:48:53.932Z,33.28
2018-07-22T06:51:24.745Z,33.61
2018-07-22T06:53:55.393Z,34.35
2018-07-22T06:56:25.973Z,34.23
2018-07-22T06:58:57.341Z,34.09
2018-07-22T07:01:27.933Z,34.79
2018-07-22T07:03:58.905Z,34.72
2018-07-22T07:06:29.789Z,35.00
2018-07-22T07:09:00.845Z,34.64
2018-07-22T07:11:31.542Z,35.34
2018-07-22T07:14:02.433Z,35.02
2018-07-22T07:16:33.000Z,35.47
2018-07-22T07:19:03.801Z,35.52
2018-07-22T07:21:34.421Z,35.72
2018-07-22T07:24:05.041Z,36.23
2018-07-22T07:26:35.738Z,36.44
2018-07-22T07:29:06.312Z,36.87
2018-07-22T07:31:37.204Z,36.85
2018-07-22T07:34:08.588Z,36.65
2018-07-22T07:36:39.247Z,36.66
2018-07-22T07:39:12.867Z,35.75
2018-07-22T07:41:43.466Z,35.70
2018-07-22T07:44:14.229Z,35.68
2018-07-22T07:46:44.941Z,36.83
2018-07-22T07:49:15.823Z,37.35
2018-07-22T07:51:47.433Z,37.35
2018-07-22T07:54:18.369Z,38.25
2018-07-22T07:56:49.051Z,38.75
2018-07-22T07:59:20.105Z,38.53
2018-07-22T08:01:50.752Z,37.96
2018-07-22T08:04:21.685Z,38.47
2018-07-22T08:06:52.584Z,38.84
2018-07-22T08:09:23.872Z,38.98
2018-07-22T08:11:55.072Z,38.87
2018-07-22T08:14:26.718Z,38.25
2018-07-22T08:16:56.941Z,39.21
2018-07-22T08:19:27.643Z,39.81
2018-07-22T08:21:58.328Z,39.65
2018-07-22T08:24:29.166Z,39.03
2018-07-22T08:26:59.942Z,39.26
2018-07-22T08:29:31.628Z,40.13
2018-07-22T08:32:03.157Z,40.73
2018-07-22T08:34:33.718Z,39.80
2018-07-22T08:37:04.352Z,39.08
2018-07-22T08:39:35.043Z,38.38
2018-07-22T08:42:05.714Z,39.69
2018-07-22T08:44:36.502Z,39.26
2018-07-22T08:47:07.239Z,39.67
2018-07-22T08:49:38.100Z,39.64
2018-07-22T08:52:09.155Z,39.21
2018-07-22T08:54:39.926Z,39.91
2018-07-22T08:57:10.557Z,40.30
2018-07-22T08:59:41.313Z,40.38
2018-07-22T09:02:11.967Z,40.46
2018-07-22T09:04:42.770Z,41.21
2018-07-22T09:07:13.503Z,40.22
2018-07-22T09:09:44.457Z,40.40
2018-07-22T09:12:15.053Z,40.86
2018-07-22T09:14:45.989Z,39.26
2018-07-22T09:17:16.754Z,38.05
2018-07-22T09:19:47.598Z,39.10
2018-07-22T09:22:18.278Z,38.40
2018-07-22T09:24:50.012Z,39.32
2018-07-22T09:27:20.432Z,40.45
2018-07-22T09:29:51.295Z,40.68
2018-07-22T09:32:21.949Z,40.54
2018-07-22T09:34:52.757Z,39.22
2018-07-22T09:37:23.487Z,40.41
2018-07-22T09:39:54.314Z,41.15
2018-07-22T09:42:24.928Z,41.52
2018-07-22T09:44:55.386Z,41.40
2018-07-22T09:47:26.122Z,41.77
2018-07-22T09:49:57.053Z,42.41
2018-07-22T09:52:27.876Z,43.32
2018-07-22T09:54:58.520Z,43.28
2018-07-22T09:57:29.093Z,42.59
2018-07-22T09:59:59.861Z,41.25
2018-07-22T10:02:30.511Z,42.19
2018-07-22T10:05:02.115Z,41.69
2018-07-22T10:07:32.909Z,41.31
2018-07-22T10:10:03.822Z,40.34
2018-07-22T10:12:35.509Z,40.18
2018-07-22T10:15:06.308Z,40.22
2018-07-22T10:17:38.783Z,41.02
2018-07-22T10:20:09.629Z,41.03
2018-07-22T10:22:40.210Z,40.71
2018-07-22T10:25:11.302Z,40.87
2018-07-22T10:27:42.282Z,41.19
2018-07-22T10:30:13.191Z,42.29
2018-07-22T10:32:43.801Z,42.51
2018-07-22T10:35:14.677Z,42.69
2018-07-22T10:37:45.220Z,43.36
2018-07-22T10:40:16.418Z,42.99
2018-07-22T10:42:47.239Z,42.37
2018-07-22T10:45:18.182Z,42.23
2018-07-22T10:47:48.880Z,41.34
2018-07-22T10:50:19.864Z,40.88
2018-07-22T10:52:50.441Z,40.11
2018-07-22T10:55:21.257Z,40.26
2018-07-22T10:57:51.888Z,40.73
2018-07-22T11:00:22.997Z,40.74
2018-07-22T11:02:53.624Z,40.28
2018-07-22T11:05:24.325Z,41.04
2018-07-22T11:07:54.992Z,40.72
2018-07-22T11:10:25.868Z,41.29
2018-07-22T11:12:56.874Z,40.58
2018-07-22T11:15:27.693Z,41.17
2018-07-22T11:17:58.333Z,40.92
2018-07-22T11:20:29.101Z,41.26
2018-07-22T11:22:59.713Z,41.85
2018-07-22T11:25:30.460Z,41.03
2018-07-22T11:28:00.973Z,40.77
2018-07-22T11:30:31.638Z,40.35
2018-07-22T11:33:02.253Z,40.95
2018-07-22T11:35:33.350Z,41.97
2018-07-22T11:38:03.905Z,41.52
2018-07-22T11:40:34.645Z,42.10
2018-07-22T11:43:05.268Z,42.00
2018-07-22T11:45:36.019Z,41.39
2018-07-22T11:48:06.613Z,41.14
2018-07-22T11:50:37.606Z,41.59
2018-07-22T11:53:08.282Z,41.44
2018-07-22T11:55:38.928Z,41.74
2018-07-22T11:58:09.584Z,41.13
2018-07-22T12:00:40.437Z,41.05
2018-07-22T12:03:11.106Z,40.91
2018-07-22T12:05:41.927Z,40.63
2018-07-22T12:08:12.592Z,40.45
2018-07-22T12:10:43.490Z,40.30
2018-07-22T12:13:14.269Z,40.43
2018-07-22T12:15:45.030Z,41.73
2018-07-22T12:18:22.482Z,41.66
2018-07-22T12:20:53.260Z,41.75
2018-07-22T12:23:23.876Z,41.19
2018-07-22T12:25:54.604Z,41.16
2018-07-22T12:28:25.225Z,42.14
2018-07-22T12:30:55.928Z,42.06
2018-07-22T12:33:26.649Z,42.07
2018-07-22T12:35:57.421Z,42.52
2018-07-22T12:38:28.121Z,43.30
2018-07-22T12:40:58.529Z,43.72
2018-07-22T12:43:29.366Z,43.30
2018-07-22T12:46:00.417Z,41.64
2018-07-22T12:48:30.957Z,41.72
2018-07-22T12:51:01.745Z,42.22
2018-07-22T12:53:32.437Z,42.00
2018-07-22T12:56:02.572Z,40.60
2018-07-22T12:58:33.381Z,40.73
2018-07-22T13:01:04.077Z,41.92
2018-07-22T13:03:35.115Z,42.42
2018-07-22T13:06:05.736Z,42.91
2018-07-22T13:08:36.318Z,42.88
2018-07-22T13:11:06.449Z,42.54
2018-07-22T13:13:37.353Z,42.62
2018-07-22T13:16:08.274Z,42.24
2018-07-22T13:18:38.974Z,42.45
2018-07-22T13:21:09.701Z,42.43
2018-07-22T13:23:40.388Z,42.69
2018-07-22T13:26:11.149Z,42.57
2018-07-22T13:28:41.976Z,43.32
2018-07-22T13:31:12.628Z,42.23
2018-07-22T13:33:43.300Z,42.62
2018-07-22T13:36:13.984Z,41.37
2018-07-22T13:38:44.522Z,41.84
2018-07-22T13:41:15.148Z,42.94
2018-07-22T13:43:45.977Z,42.34
2018-07-22T13:46:16.785Z,42.04
2018-07-22T13:48:47.518Z,42.12
2018-07-22T13:51:18.073Z,42.65
2018-07-22T13:53:48.472Z,42.93
2018-07-22T13:56:19.254Z,42.52
2018-07-22T13:58:50.022Z,42.77
2018-07-22T14:01:20.840Z,43.20
2018-07-22T14:03:51.714Z,42.97
2018-07-22T14:06:22.278Z,41.82
2018-07-22T14:08:53.061Z,40.42
2018-07-22T14:11:23.862Z,41.16
2018-07-22T14:13:54.853Z,42.01
2018-07-22T14:16:25.576Z,41.17
2018-07-22T14:18:56.332Z,40.65
2018-07-22T14:21:26.943Z,40.56
2018-07-22T14:23:57.891Z,40.63
2018-07-22T14:26:28.561Z,40.72
2018-07-22T14:28:59.341Z,40.09
2018-07-22T14:31:29.926Z,40.79
2018-07-22T14:34:00.805Z,41.07
2018-07-22T14:36:31.509Z,40.87
2018-07-22T14:39:02.461Z,40.47
2018-07-22T14:41:33.130Z,40.45
2018-07-22T14:44:03.933Z,40.07
2018-07-22T14:46:34.454Z,39.91
2018-07-22T14:49:05.331Z,39.59
2018-07-22T14:51:35.913Z,39.81
2018-07-22T14:54:07.222Z,39.63
2018-07-22T14:56:37.983Z,39.66
2018-07-22T14:59:08.705Z,39.45
2018-07-22T15:01:39.208Z,39.18
2018-07-22T15:04:10.349Z,39.13
2018-07-22T15:06:41.053Z,39.14
2018-07-22T15:09:11.832Z,39.32
2018-07-22T15:11:42.496Z,39.12
2018-07-22T15:14:13.185Z,38.87
2018-07-22T15:16:43.858Z,38.70
2018-07-22T15:19:14.573Z,38.58
2018-07-22T15:21:45.257Z,38.76
2018-07-22T15:24:16.021Z,38.41
2018-07-22T15:26:46.672Z,38.52
2018-07-22T15:29:17.486Z,38.67
2018-07-22T15:31:48.095Z,38.66
2018-07-22T15:34:18.827Z,38.40
2018-07-22T15:36:49.451Z,38.34
2018-07-22T15:39:20.289Z,38.49
2018-07-22T15:41:50.948Z,38.35
2018-07-22T15:44:21.736Z,38.02
2018-07-22T15:46:52.336Z,37.71
2018-07-22T15:49:23.202Z,37.57
2018-07-22T15:51:53.866Z,37.42
2018-07-22T15:54:24.653Z,37.59
2018-07-22T15:56:55.268Z,37.65
2018-07-22T15:59:25.880Z,37.63
2018-07-22T16:01:56.200Z,37.76
2018-07-22T16:04:27.073Z,38.08
2018-07-22T16:06:57.799Z,37.80
2018-07-22T16:09:28.460Z,38.20
2018-07-22T16:11:59.054Z,38.68
2018-07-22T16:14:29.909Z,38.57
2018-07-22T16:17:00.617Z,38.57
2018-07-22T16:19:31.581Z,39.13
2018-07-22T16:22:02.245Z,39.73
2018-07-22T16:24:33.072Z,40.05
2018-07-22T16:27:03.918Z,40.05
2018-07-22T16:29:34.799Z,39.82
2018-07-22T16:32:05.482Z,39.84
2018-07-22T16:34:36.279Z,39.71
2018-07-22T16:37:06.937Z,39.58
2018-07-22T16:39:37.945Z,39.39
2018-07-22T16:42:08.663Z,39.19
2018-07-22T16:44:39.513Z,39.10
2018-07-22T16:47:10.113Z,39.20
2018-07-22T16:49:40.916Z,38.28
2018-07-22T16:52:11.532Z,37.45
2018-07-22T16:54:42.429Z,36.85
2018-07-22T16:57:13.119Z,36.34
2018-07-22T16:59:44.049Z,35.46
2018-07-22T17:02:14.686Z,34.44
2018-07-22T17:04:45.634Z,33.66
2018-07-22T17:07:16.199Z,33.07
2018-07-22T17:09:46.889Z,32.85
2018-07-22T17:12:17.468Z,32.39
2018-07-22T17:14:48.153Z,32.25
2018-07-22T17:17:18.801Z,31.70
2018-07-22T17:19:49.623Z,31.47
2018-07-22T17:22:20.256Z,31.14
2018-07-22T17:24:51.041Z,31.19
2018-07-22T17:27:21.493Z,30.87
2018-07-22T17:29:52.288Z,30.89
2018-07-22T17:32:23.025Z,30.57
2018-07-22T17:34:54.079Z,30.42
2018-07-22T17:37:24.746Z,30.25
2018-07-22T17:39:59.568Z,29.76
2018-07-22T17:42:32.317Z,29.70
2018-07-22T17:45:03.280Z,29.73
2018-07-22T17:47:33.888Z,29.57
2018-07-22T17:50:04.773Z,29.38
2018-07-22T17:52:35.411Z,28.89
2018-07-22T17:55:06.188Z,29.26
2018-07-22T17:57:36.927Z,29.28
2018-07-22T18:00:08.004Z,29.16
2018-07-22T18:02:40.687Z,28.91
2018-07-22T18:05:11.509Z,28.69
2018-07-22T18:07:42.157Z,28.70
2018-07-22T18:10:12.813Z,28.41
2018-07-22T18:12:43.380Z,28.35
2018-07-22T18:15:14.104Z,28.29
2018-07-22T18:17:44.764Z,28.40
2018-07-22T18:20:15.557Z,28.43
2018-07-22T18:22:46.259Z,28.33
2018-07-22T18:25:16.988Z,28.31
2018-07-22T18:27:47.561Z,28.22
2018-07-22T18:30:18.481Z,28.14
2018-07-22T18:32:49.173Z,27.99
2018-07-22T18:35:20.041Z,27.98
2018-07-22T18:37:50.589Z,27.65
2018-07-22T18:40:21.449Z,27.45
2018-07-22T18:42:51.861Z,27.47
2018-07-22T18:45:22.784Z,27.45
2018-07-22T18:47:53.792Z,27.50
2018-07-22T18:50:24.629Z,27.33
2018-07-22T18:52:55.142Z,27.38
2018-07-22T18:55:26.260Z,27.49
2018-07-22T18:57:56.553Z,27.05
2018-07-22T19:00:26.933Z,26.78
2018-07-22T19:02:57.189Z,27.10
2018-07-22T19:05:27.663Z,27.49
2018-07-22T19:07:57.941Z,27.41
2018-07-22T19:10:28.245Z,27.36
2018-07-22T19:12:58.479Z,27.21
2018-07-22T19:15:28.736Z,27.35
2018-07-22T19:17:59.081Z,27.65
2018-07-22T19:20:29.475Z,27.72
2018-07-22T19:23:00.265Z,27.74
2018-07-22T19:25:30.580Z,27.79
2018-07-22T19:28:00.832Z,27.67
2018-07-22T19:30:31.139Z,27.70
2018-07-22T19:33:01.682Z,27.76
2018-07-22T19:35:32.034Z,27.67
2018-07-22T19:38:02.392Z,27.45
2018-07-22T19:40:32.621Z,27.48
2018-07-22T19:43:02.865Z,27.57
2018-07-22T19:45:33.536Z,27.46
2018-07-22T19:48:03.872Z,27.52
2018-07-22T19:50:34.589Z,27.43
2018-07-22T19:53:04.845Z,27.49
2018-07-22T19:55:35.140Z,27.66
2018-07-22T19:58:05.633Z,27.52
2018-07-22T20:00:36.558Z,27.74
2018-07-22T20:03:07.390Z,27.70
2018-07-22T20:05:38.050Z,27.76
2018-07-22T20:08:08.357Z,27.72
2018-07-22T20:10:38.669Z,27.90
2018-07-22T20:13:08.956Z,27.88
2018-07-22T20:15:39.922Z,28.03
2018-07-22T20:18:10.609Z,28.15
2018-07-22T20:20:41.489Z,28.08
2018-07-22T20:23:11.810Z,28.16
2018-07-22T20:25:42.111Z,28.32
2018-07-22T20:28:12.689Z,28.41
2018-07-22T20:30:42.533Z,28.29
2018-07-22T20:33:13.344Z,28.05
2018-07-22T20:35:57.755Z,27.65
2018-07-22T20:38:28.549Z,27.60
2018-07-22T20:40:59.233Z,27.52
2018-07-22T20:43:30.965Z,27.66
2018-07-22T20:46:01.246Z,27.74
2018-07-22T20:48:32.168Z,27.72
2018-07-22T20:51:02.905Z,27.76
2018-07-22T20:53:33.645Z,27.53
2018-07-22T20:56:04.280Z,27.62
2018-07-22T20:58:34.429Z,27.68
2018-07-22T21:01:05.106Z,27.62
2018-07-22T21:03:35.500Z,27.82
2018-07-22T21:06:06.062Z,28.03
2018-07-22T21:08:36.830Z,28.06
2018-07-22T21:11:07.539Z,28.09
2018-07-22T21:13:38.210Z,28.22
2018-07-22T21:16:08.741Z,28.38
2018-07-22T21:18:39.472Z,28.46
2018-07-22T21:21:10.078Z,28.47
2018-07-22T21:23:40.881Z,28.55
2018-07-22T21:26:11.596Z,28.57
2018-07-22T21:28:42.357Z,28.47
2018-07-22T21:31:12.601Z,28.41
2018-07-22T21:33:43.025Z,28.33
2018-07-22T21:38:48.931Z,28.33
2018-07-22T21:41:19.177Z,28.05
2018-07-22T21:43:49.449Z,28.09
2018-07-22T21:46:19.833Z,27.85
2018-07-22T21:48:50.101Z,27.75
2018-07-22T21:51:20.382Z,27.69
2018-07-22T21:53:50.661Z,27.62
2018-07-22T21:56:21.405Z,27.68
2018-07-22T21:58:51.673Z,27.67
2018-07-22T22:01:21.909Z,27.03
2018-07-22T22:03:51.900Z,26.81
2018-07-22T22:06:22.194Z,27.24
2018-07-22T22:08:52.510Z,27.45
2018-07-22T22:11:22.724Z,27.44
2018-07-22T22:13:53.056Z,27.42
2018-07-22T22:16:23.406Z,27.35
2018-07-22T22:18:54.453Z,27.24
2018-07-22T22:21:24.734Z,27.18
2018-07-22T22:23:55.097Z,27.15
2018-07-22T22:26:25.390Z,27.09
2018-07-22T22:28:55.742Z,27.11
2018-07-22T22:31:25.976Z,27.02
2018-07-22T22:33:56.301Z,26.76
2018-07-22T22:36:34.510Z,26.88
2018-07-22T22:39:07.261Z,27.00
2018-07-22T22:41:37.627Z,26.98
2018-07-22T22:44:08.605Z,26.93
2018-07-22T22:46:39.540Z,26.92
2018-07-22T22:49:10.520Z,26.95
2018-07-22T22:51:47.641Z,26.94
2018-07-22T22:54:20.025Z,26.97
2018-07-22T22:56:50.332Z,26.97
2018-07-22T22:59:22.245Z,26.90
2018-07-22T23:01:56.627Z,26.99
2018-07-22T23:04:27.186Z,26.97
2018-07-22T23:06:57.395Z,26.94
2018-07-22T23:09:27.787Z,26.97
2018-07-22T23:11:58.113Z,27.12
2018-07-22T23:14:28.495Z,27.19
2018-07-22T23:16:58.786Z,27.23
2018-07-22T23:19:29.245Z,27.37
2018-07-22T23:21:59.720Z,27.34
2018-07-22T23:24:30.376Z,27.18
2018-07-22T23:27:00.646Z,27.10
2018-07-22T23:29:30.876Z,27.10
2018-07-22T23:32:01.413Z,27.06
2018-07-22T23:34:31.620Z,26.71
2018-07-22T23:37:02.217Z,26.70
2018-07-22T23:39:32.905Z,26.36
2018-07-22T23:42:03.184Z,26.59
2018-07-22T23:44:33.617Z,26.56
2018-07-22T23:47:04.217Z,26.81
2018-07-22T23:49:34.973Z,26.65
2018-07-22T23:52:05.261Z,26.49
2018-07-22T23:54:35.556Z,26.63
2018-07-22T23:57:06.218Z,26.77
2018-07-22T23:59:36.530Z,26.91
